createdAt,value
2022-12-15T00:01:20.171Z,1.33
2022-12-15T00:03:10.816Z,1.33
2022-12-15T00:05:01.341Z,1.36
2022-12-15T00:06:52.012Z,1.37
2022-12-15T00:08:42.446Z,1.39
2022-12-15T00:10:33.065Z,1.40
2022-12-15T00:12:23.679Z,1.41
2022-12-15T00:14:14.421Z,1.42
2022-12-15T00:16:06.245Z,1.46
2022-12-15T00:17:56.726Z,1.44
2022-12-15T00:19:47.535Z,1.42
2022-12-15T00:21:38.307Z,1.41
2022-12-15T00:23:31.362Z,1.43
2022-12-15T00:25:21.931Z,1.39
2022-12-15T00:27:12.824Z,1.38
2022-12-15T00:29:03.508Z,1.37
2022-12-15T00:30:58.892Z,1.37
2022-12-15T00:32:52.735Z,1.36
2022-12-15T00:34:43.047Z,1.37
2022-12-15T00:36:33.729Z,1.36
2022-12-15T00:38:32.543Z,1.40
2022-12-15T00:40:05.705Z,1.37
2022-12-15T00:41:37.745Z,1.35
2022-12-15T00:43:15.984Z,1.31
2022-12-15T00:44:48.003Z,1.30
2022-12-15T00:46:38.599Z,1.29
2022-12-15T00:48:10.566Z,1.27
2022-12-15T00:50:01.265Z,1.23
2022-12-15T00:51:51.842Z,1.23
2022-12-15T00:53:43.437Z,1.25
2022-12-15T00:55:33.970Z,1.20
2022-12-15T00:57:24.653Z,1.19
2022-12-15T00:59:15.194Z,1.20
2022-12-15T01:01:05.660Z,1.21
2022-12-15T01:02:56.452Z,1.24
2022-12-15T01:04:47.514Z,1.27
2022-12-15T01:06:38.681Z,1.23
2022-12-15T01:08:29.458Z,1.23
2022-12-15T01:10:20.223Z,1.22
2022-12-15T01:12:11.818Z,1.26
2022-12-15T01:14:02.529Z,1.24
2022-12-15T01:15:55.563Z,1.30
2022-12-15T01:17:45.943Z,1.28
2022-12-15T01:19:36.628Z,1.25
2022-12-15T01:21:09.657Z,1.29
2022-12-15T01:22:41.864Z,1.27
2022-12-15T01:24:13.877Z,1.23
2022-12-15T01:25:45.835Z,1.10
2022-12-15T01:27:24.760Z,1.10
2022-12-15T01:28:56.790Z,1.12
2022-12-15T01:30:31.530Z,1.13
2022-12-15T01:32:03.588Z,1.13
2022-12-15T01:33:35.583Z,1.13
2022-12-15T01:35:08.575Z,1.13
2022-12-15T01:36:40.583Z,1.12
2022-12-15T01:38:12.588Z,1.11
2022-12-15T01:40:05.153Z,1.13
2022-12-15T01:41:37.086Z,1.11
2022-12-15T01:43:30.824Z,1.16
2022-12-15T01:45:24.896Z,1.14
2022-12-15T01:46:57.150Z,1.09
2022-12-15T01:48:34.196Z,1.11
2022-12-15T01:50:13.452Z,1.14
2022-12-15T01:51:49.267Z,1.09
2022-12-15T01:53:21.252Z,1.03
2022-12-15T01:54:56.894Z,1.03
2022-12-15T01:56:33.997Z,1.04
2022-12-15T01:58:09.783Z,1.01
2022-12-15T01:59:46.721Z,1.06
2022-12-15T02:01:18.822Z,1.05
2022-12-15T02:02:51.663Z,1.09
2022-12-15T02:04:24.100Z,1.06
2022-12-15T02:05:57.511Z,1.03
2022-12-15T02:07:29.499Z,1.03
2022-12-15T02:09:01.849Z,1.05
2022-12-15T02:11:08.767Z,1.09
2022-12-15T02:13:08.480Z,1.11
2022-12-15T02:14:47.903Z,1.14
2022-12-15T02:16:42.713Z,1.14
2022-12-15T02:18:17.796Z,1.15
2022-12-15T02:20:01.678Z,1.17
2022-12-15T02:21:41.101Z,1.15
2022-12-15T02:23:16.194Z,1.14
2022-12-15T02:25:02.915Z,1.06
2022-12-15T02:26:53.643Z,0.99
2022-12-15T02:28:53.610Z,1.00
2022-12-15T02:31:41.122Z,1.00
2022-12-15T02:33:24.953Z,0.87
2022-12-15T02:35:04.225Z,0.99
2022-12-15T02:36:39.303Z,1.00
2022-12-15T02:38:11.435Z,1.01
2022-12-15T02:39:44.061Z,1.03
2022-12-15T02:41:38.580Z,1.12
2022-12-15T02:43:10.401Z,1.13
2022-12-15T02:44:55.206Z,1.12
2022-12-15T02:48:52.083Z,1.16
2022-12-15T02:50:51.663Z,1.18
2022-12-15T02:52:26.290Z,1.17
2022-12-15T02:54:29.037Z,1.26
2022-12-15T02:56:11.254Z,1.27
2022-12-15T02:57:58.992Z,1.29
2022-12-15T02:59:47.814Z,1.27
2022-12-15T03:01:31.523Z,1.30
2022-12-15T03:03:03.797Z,1.28
2022-12-15T03:04:37.520Z,1.28
2022-12-15T03:06:09.681Z,1.39
2022-12-15T03:07:43.089Z,1.34
2022-12-15T03:09:15.051Z,1.35
2022-12-15T03:10:47.661Z,1.37
2022-12-15T03:12:19.657Z,1.37
2022-12-15T03:13:52.139Z,1.32
2022-12-15T03:15:24.110Z,1.21
2022-12-15T03:16:56.417Z,1.12
2022-12-15T03:18:28.560Z,1.16
2022-12-15T03:20:00.623Z,1.16
2022-12-15T03:21:32.596Z,1.21
2022-12-15T03:23:04.560Z,1.20
2022-12-15T03:24:36.528Z,1.21
2022-12-15T03:26:12.384Z,1.31
2022-12-15T03:27:46.309Z,1.30
2022-12-15T03:29:18.523Z,1.24
2022-12-15T03:30:50.887Z,1.30
2022-12-15T03:32:22.981Z,1.30
2022-12-15T03:33:55.828Z,1.25
2022-12-15T03:35:27.786Z,1.27
2022-12-15T03:36:59.748Z,1.26
2022-12-15T03:38:31.663Z,1.23
2022-12-15T03:40:03.795Z,1.25
2022-12-15T03:41:35.762Z,1.27
2022-12-15T03:43:07.728Z,1.25
2022-12-15T03:44:39.717Z,1.27
2022-12-15T03:47:51.197Z,1.28
2022-12-15T03:49:23.154Z,1.32
2022-12-15T03:50:55.574Z,1.32
2022-12-15T03:52:27.567Z,1.33
2022-12-15T03:53:59.560Z,1.35
2022-12-15T03:55:31.716Z,1.36
2022-12-15T03:57:03.801Z,1.33
2022-12-15T03:58:35.822Z,1.34
2022-12-15T04:00:08.682Z,1.35
2022-12-15T04:01:46.417Z,1.34
2022-12-15T04:03:18.630Z,1.31
2022-12-15T04:04:50.640Z,1.29
2022-12-15T04:06:22.996Z,1.31
2022-12-15T04:07:56.295Z,1.31
2022-12-15T04:09:28.231Z,1.34
2022-12-15T04:11:00.202Z,1.34
2022-12-15T04:12:32.171Z,1.33
2022-12-15T04:14:07.278Z,1.30
2022-12-15T04:17:12.516Z,1.30
2022-12-15T04:18:44.707Z,1.34
2022-12-15T04:20:16.711Z,1.35
2022-12-15T04:21:49.744Z,1.40
2022-12-15T04:23:22.577Z,1.41
2022-12-15T04:25:12.880Z,1.41
2022-12-15T04:27:03.429Z,1.45
2022-12-15T04:28:54.038Z,1.46
2022-12-15T04:30:44.842Z,1.44
2022-12-15T04:32:35.746Z,1.46
2022-12-15T04:34:31.113Z,1.52
2022-12-15T04:36:21.947Z,1.52
2022-12-15T04:38:12.420Z,1.53
2022-12-15T04:40:07.020Z,1.56
2022-12-15T04:41:57.392Z,1.59
2022-12-15T04:43:48.227Z,1.52
2022-12-15T04:45:41.119Z,1.48
2022-12-15T04:47:31.757Z,1.51
2022-12-15T04:49:22.568Z,1.52
2022-12-15T04:51:13.184Z,1.52
2022-12-15T04:53:03.897Z,1.53
2022-12-15T04:54:54.554Z,1.56
2022-12-15T04:56:45.093Z,1.55
2022-12-15T04:58:35.620Z,1.54
2022-12-15T05:00:27.614Z,1.55
2022-12-15T05:02:18.296Z,1.56
2022-12-15T05:04:08.891Z,1.53
2022-12-15T05:05:59.317Z,1.54
2022-12-15T05:07:50.055Z,1.55
2022-12-15T05:09:40.764Z,1.56
2022-12-15T05:11:31.395Z,1.58
2022-12-15T05:13:25.747Z,1.61
2022-12-15T05:15:16.527Z,1.60
2022-12-15T05:17:07.587Z,1.60
2022-12-15T05:18:58.235Z,1.61
2022-12-15T05:20:50.173Z,1.64
2022-12-15T05:22:40.870Z,1.63
2022-12-15T05:24:31.606Z,1.66
2022-12-15T05:26:22.313Z,1.69
2022-12-15T05:28:13.058Z,1.70
2022-12-15T05:30:03.704Z,1.69
2022-12-15T05:31:55.407Z,1.70
2022-12-15T05:33:27.628Z,1.71
2022-12-15T05:34:59.765Z,1.72
2022-12-15T05:36:31.825Z,1.71
2022-12-15T05:38:05.802Z,1.74
2022-12-15T05:39:37.844Z,1.71
2022-12-15T05:41:09.928Z,1.71
2022-12-15T05:42:42.040Z,1.71
2022-12-15T05:44:14.425Z,1.74
2022-12-15T05:45:46.471Z,1.75
2022-12-15T05:47:18.513Z,1.76
2022-12-15T05:48:50.808Z,1.75
2022-12-15T05:50:23.727Z,1.78
2022-12-15T05:51:57.516Z,1.76
2022-12-15T05:53:29.844Z,1.77
2022-12-15T05:55:02.090Z,1.78
2022-12-15T05:56:34.122Z,1.79
2022-12-15T05:58:06.190Z,1.80
2022-12-15T05:59:38.236Z,1.82
2022-12-15T06:01:13.841Z,1.88
2022-12-15T06:02:45.912Z,1.88
2022-12-15T06:04:18.078Z,1.90
2022-12-15T06:05:56.161Z,1.90
2022-12-15T06:07:28.567Z,1.89
2022-12-15T06:09:00.634Z,1.88
2022-12-15T06:10:32.657Z,1.88
2022-12-15T06:12:04.847Z,1.87
2022-12-15T06:13:36.948Z,1.85
2022-12-15T06:15:09.421Z,1.84
2022-12-15T06:16:50.042Z,1.86
2022-12-15T06:18:24.077Z,1.84
2022-12-15T06:19:56.165Z,1.84
2022-12-15T06:21:35.758Z,1.89
2022-12-15T06:23:07.875Z,1.86
2022-12-15T06:24:39.899Z,1.86
2022-12-15T06:26:34.632Z,1.91
2022-12-15T06:28:06.680Z,1.85
2022-12-15T06:29:38.687Z,1.85
2022-12-15T06:31:12.196Z,1.86
2022-12-15T06:32:44.052Z,1.93
2022-12-15T06:35:48.242Z,1.83
2022-12-15T06:37:20.268Z,1.86
2022-12-15T06:38:52.743Z,1.89
2022-12-15T06:40:24.755Z,1.88
2022-12-15T06:41:56.748Z,1.90
2022-12-15T06:43:29.595Z,1.89
2022-12-15T06:45:01.920Z,1.89
2022-12-15T06:46:35.366Z,1.89
2022-12-15T06:48:07.523Z,1.88
2022-12-15T06:49:39.594Z,1.90
2022-12-15T06:51:16.812Z,1.91
2022-12-15T06:52:49.500Z,1.88
2022-12-15T06:54:21.688Z,1.92
2022-12-15T06:55:53.661Z,1.94
2022-12-15T06:57:25.627Z,1.95
2022-12-15T06:58:59.103Z,1.96
2022-12-15T07:00:34.697Z,1.95
2022-12-15T07:02:10.450Z,1.99
2022-12-15T07:03:44.843Z,1.97
2022-12-15T07:05:17.072Z,1.99
2022-12-15T07:06:49.450Z,2.00
2022-12-15T07:08:24.443Z,2.01
2022-12-15T07:10:00.734Z,2.05
2022-12-15T07:11:33.271Z,2.05
2022-12-15T07:13:05.182Z,2.04
2022-12-15T07:14:37.101Z,2.02
2022-12-15T07:16:10.380Z,2.05
2022-12-15T07:17:42.566Z,2.04
2022-12-15T07:19:14.780Z,2.05
2022-12-15T07:20:46.854Z,2.06
2022-12-15T07:22:22.769Z,2.08
2022-12-15T07:23:56.734Z,2.08
2022-12-15T07:25:29.926Z,2.10
2022-12-15T07:27:01.917Z,2.11
2022-12-15T07:28:34.916Z,2.14
2022-12-15T07:30:07.961Z,2.12
2022-12-15T07:31:40.622Z,2.16
2022-12-15T07:33:12.764Z,2.14
2022-12-15T07:34:44.830Z,2.16
2022-12-15T07:36:16.945Z,2.18
2022-12-15T07:37:48.970Z,2.19
2022-12-15T07:39:21.515Z,2.21
2022-12-15T07:40:53.791Z,2.22
2022-12-15T07:42:25.790Z,2.22
2022-12-15T07:43:58.692Z,2.24
2022-12-15T07:45:30.793Z,2.26
2022-12-15T07:47:02.811Z,2.25
2022-12-15T07:48:35.013Z,2.28
2022-12-15T07:50:08.230Z,2.30
2022-12-15T07:51:41.563Z,2.28
2022-12-15T07:53:13.608Z,2.31
2022-12-15T07:54:45.785Z,2.32
2022-12-15T07:56:21.104Z,2.29
2022-12-15T07:57:53.109Z,2.26
2022-12-15T07:59:25.176Z,2.28
2022-12-15T08:01:01.230Z,2.34
2022-12-15T08:02:33.397Z,2.32
2022-12-15T08:04:05.754Z,2.35
2022-12-15T08:05:38.076Z,2.36
2022-12-15T08:07:10.690Z,2.40
2022-12-15T08:08:44.594Z,2.47
2022-12-15T08:10:16.978Z,2.47
2022-12-15T08:11:49.019Z,2.46
2022-12-15T08:13:52.448Z,2.47
2022-12-15T08:15:13.147Z,2.50
2022-12-15T08:16:45.709Z,2.52
2022-12-15T08:18:17.853Z,2.55
2022-12-15T08:19:49.833Z,2.53
2022-12-15T08:21:21.836Z,2.53
2022-12-15T08:22:53.883Z,2.54
2022-12-15T08:24:25.942Z,2.57
2022-12-15T08:26:12.204Z,2.64
2022-12-15T08:27:47.362Z,2.54
2022-12-15T08:31:19.875Z,2.42
2022-12-15T08:32:57.819Z,2.39
2022-12-15T08:34:29.835Z,2.41
2022-12-15T08:36:04.874Z,2.47
2022-12-15T08:37:36.997Z,2.42
2022-12-15T08:39:09.050Z,2.43
2022-12-15T08:40:41.006Z,2.49
2022-12-15T08:42:13.065Z,2.52
2022-12-15T08:43:48.552Z,2.55
2022-12-15T08:45:21.148Z,2.55
2022-12-15T08:46:53.191Z,2.55
2022-12-15T08:48:25.236Z,2.57
2022-12-15T08:49:57.253Z,2.60
2022-12-15T08:51:31.327Z,2.63
2022-12-15T08:53:29.527Z,2.63
2022-12-15T08:54:55.767Z,2.67
2022-12-15T08:56:28.224Z,2.68
2022-12-15T08:58:00.313Z,2.72
2022-12-15T08:59:32.399Z,2.74
2022-12-15T09:01:06.603Z,2.76
2022-12-15T09:04:12.630Z,2.60
2022-12-15T09:05:44.729Z,2.76
2022-12-15T09:07:16.685Z,2.76
2022-12-15T09:08:50.216Z,2.77
2022-12-15T09:10:23.877Z,2.79
2022-12-15T09:11:55.856Z,2.82
2022-12-15T09:13:29.225Z,2.89
2022-12-15T09:15:01.612Z,2.90
2022-12-15T09:16:33.773Z,2.92
2022-12-15T09:18:06.026Z,2.96
2022-12-15T09:19:38.162Z,3.01
2022-12-15T09:21:11.552Z,3.06
2022-12-15T09:22:43.563Z,3.08
2022-12-15T09:24:23.192Z,3.14
2022-12-15T09:26:02.329Z,3.17
2022-12-15T09:27:35.547Z,3.18
2022-12-15T09:29:07.486Z,3.19
2022-12-15T09:30:39.582Z,3.24
2022-12-15T09:32:14.308Z,3.27
2022-12-15T09:33:46.682Z,3.33
2022-12-15T09:35:18.739Z,3.35
2022-12-15T09:36:50.801Z,3.38
2022-12-15T09:40:01.830Z,3.41
2022-12-15T09:41:35.497Z,3.47
2022-12-15T09:43:33.359Z,3.47
2022-12-15T09:45:14.421Z,3.56
2022-12-15T09:47:12.381Z,3.57
2022-12-15T09:48:45.899Z,3.56
2022-12-15T09:50:24.007Z,3.60
2022-12-15T09:52:08.990Z,3.63
2022-12-15T09:53:59.164Z,3.63
2022-12-15T09:55:35.694Z,3.65
2022-12-15T09:57:26.871Z,3.59
2022-12-15T09:59:10.270Z,3.59
2022-12-15T10:00:59.718Z,3.66
2022-12-15T10:02:38.331Z,3.72
2022-12-15T10:04:16.043Z,3.71
2022-12-15T10:06:18.226Z,3.76
2022-12-15T10:07:52.067Z,3.63
2022-12-15T10:09:28.733Z,3.65
2022-12-15T10:11:05.926Z,3.64
2022-12-15T10:12:45.504Z,3.65
2022-12-15T10:14:28.877Z,3.69
2022-12-15T10:16:08.090Z,3.80
2022-12-15T10:17:50.312Z,3.84
2022-12-15T10:21:38.719Z,3.91
2022-12-15T10:23:17.501Z,3.94
2022-12-15T10:26:43.161Z,3.91
2022-12-15T10:28:18.048Z,3.98
2022-12-15T10:30:09.496Z,3.96
2022-12-15T10:31:58.384Z,3.94
2022-12-15T10:33:38.751Z,3.99
2022-12-15T10:35:16.968Z,4.00
2022-12-15T10:36:51.732Z,4.01
2022-12-15T10:38:27.538Z,4.00
2022-12-15T10:39:59.615Z,4.01
2022-12-15T10:41:34.129Z,4.07
2022-12-15T10:43:14.158Z,4.01
2022-12-15T10:44:50.308Z,3.94
2022-12-15T10:46:28.017Z,3.98
2022-12-15T10:48:02.745Z,3.97
2022-12-15T10:49:34.709Z,3.93
2022-12-15T10:51:32.016Z,3.84
2022-12-15T10:53:09.685Z,3.96
2022-12-15T10:54:45.763Z,4.02
2022-12-15T10:56:28.752Z,4.10
2022-12-15T10:58:05.596Z,4.14
2022-12-15T10:59:39.011Z,4.17
2022-12-15T11:01:18.306Z,4.22
2022-12-15T11:02:50.641Z,4.20
2022-12-15T11:04:33.222Z,4.29
2022-12-15T11:06:14.928Z,4.31
2022-12-15T11:07:55.201Z,4.33
2022-12-15T11:09:36.607Z,4.34
2022-12-15T11:11:57.731Z,4.36
2022-12-15T11:13:33.187Z,4.33
2022-12-15T11:15:25.623Z,4.38
2022-12-15T11:16:59.278Z,4.38
2022-12-15T11:18:33.453Z,4.43
2022-12-15T11:20:11.531Z,4.41
2022-12-15T11:21:46.702Z,4.41
2022-12-15T11:23:46.610Z,4.46
2022-12-15T11:25:42.720Z,4.51
2022-12-15T11:27:27.684Z,4.53
2022-12-15T11:29:03.099Z,4.49
2022-12-15T11:30:39.505Z,4.51
2022-12-15T11:32:13.185Z,4.50
2022-12-15T11:33:45.262Z,4.50
2022-12-15T11:35:44.895Z,4.59
2022-12-15T11:37:41.897Z,4.63
2022-12-15T11:39:23.275Z,4.63
2022-12-15T11:40:57.036Z,4.61
2022-12-15T11:42:48.826Z,4.63
2022-12-15T11:44:45.293Z,4.61
2022-12-15T11:46:24.179Z,4.61
2022-12-15T11:48:08.406Z,4.60
2022-12-15T11:49:52.431Z,4.62
2022-12-15T11:51:29.806Z,4.61
2022-12-15T11:53:12.994Z,4.63
2022-12-15T11:54:55.817Z,4.66
2022-12-15T11:56:34.825Z,4.65
2022-12-15T11:58:12.740Z,4.65
2022-12-15T12:00:19.634Z,4.63
2022-12-15T12:02:19.723Z,4.64
2022-12-15T12:04:21.299Z,4.63
2022-12-15T12:06:08.737Z,4.60
2022-12-15T12:07:53.309Z,4.63
2022-12-15T12:09:35.545Z,4.61
2022-12-15T12:11:23.716Z,4.65
2022-12-15T12:13:04.759Z,4.56
2022-12-15T12:14:50.411Z,4.51
2022-12-15T12:16:44.559Z,4.45
2022-12-15T12:18:26.721Z,4.42
2022-12-15T12:20:03.861Z,4.42
2022-12-15T12:21:51.260Z,4.43
2022-12-15T12:23:29.490Z,4.48
2022-12-15T12:25:06.517Z,4.47
2022-12-15T12:26:42.470Z,4.53
2022-12-15T12:28:21.752Z,4.56
2022-12-15T12:30:18.457Z,4.57
2022-12-15T12:32:14.530Z,4.58
2022-12-15T12:33:49.921Z,4.47
2022-12-15T12:35:39.830Z,4.43
2022-12-15T12:37:42.219Z,4.43
2022-12-15T12:39:20.718Z,4.26
2022-12-15T12:40:52.990Z,4.21
2022-12-15T12:42:34.121Z,4.24
2022-12-15T12:44:22.742Z,4.19
2022-12-15T12:46:01.363Z,4.12
2022-12-15T12:47:36.856Z,4.11
2022-12-15T12:49:21.353Z,4.17
2022-12-15T12:51:14.509Z,4.22
2022-12-15T12:52:55.028Z,4.25
2022-12-15T12:56:30.815Z,4.21
2022-12-15T12:58:03.026Z,4.19
2022-12-15T12:59:38.573Z,4.23
2022-12-15T13:01:31.331Z,4.23
2022-12-15T13:03:23.728Z,4.18
2022-12-15T13:04:58.271Z,4.17
2022-12-15T13:06:36.359Z,4.20
2022-12-15T13:08:09.087Z,4.14
2022-12-15T13:12:15.097Z,4.09
2022-12-15T13:13:53.933Z,3.93
2022-12-15T13:15:29.208Z,3.99
2022-12-15T13:19:07.969Z,4.03
2022-12-15T13:20:40.676Z,3.99
2022-12-15T13:22:32.616Z,4.04
2022-12-15T13:24:04.772Z,3.98
2022-12-15T13:25:38.316Z,4.00
2022-12-15T13:27:10.073Z,4.05
2022-12-15T13:28:45.554Z,4.07
2022-12-15T13:30:18.362Z,4.09
2022-12-15T13:31:51.264Z,4.13
2022-12-15T13:33:24.120Z,4.18
2022-12-15T13:34:56.579Z,4.19
2022-12-15T13:36:37.717Z,4.26
2022-12-15T13:38:18.102Z,4.19
2022-12-15T13:41:25.386Z,4.21
2022-12-15T13:42:59.340Z,4.22
2022-12-15T13:44:36.476Z,4.17
2022-12-15T13:46:16.832Z,4.18
2022-12-15T13:47:52.572Z,4.18
2022-12-15T13:49:53.266Z,4.19
2022-12-15T13:51:38.723Z,4.14
2022-12-15T13:53:19.724Z,4.11
2022-12-15T13:54:56.929Z,4.11
2022-12-15T13:56:40.898Z,4.15
2022-12-15T13:58:17.681Z,4.20
2022-12-15T13:59:58.069Z,4.23
2022-12-15T14:03:24.663Z,4.27
2022-12-15T14:05:26.069Z,4.32
2022-12-15T14:07:01.498Z,4.30
2022-12-15T14:08:33.564Z,4.27
2022-12-15T14:10:08.819Z,4.29
2022-12-15T14:11:58.080Z,4.25
2022-12-15T14:13:32.197Z,4.27
2022-12-15T14:15:04.913Z,4.25
2022-12-15T14:16:36.952Z,4.25
2022-12-15T14:18:29.085Z,4.29
2022-12-15T14:20:12.438Z,4.30
2022-12-15T14:21:58.890Z,4.32
2022-12-15T14:23:41.538Z,4.32
2022-12-15T14:25:22.881Z,4.34
2022-12-15T14:26:55.050Z,4.31
2022-12-15T14:28:33.960Z,4.36
2022-12-15T14:30:13.995Z,4.34
2022-12-15T14:31:51.101Z,4.31
2022-12-15T14:33:28.097Z,4.26
2022-12-15T14:35:01.968Z,4.24
2022-12-15T14:36:34.638Z,4.26
2022-12-15T14:38:08.945Z,4.29
2022-12-15T14:39:50.131Z,4.29
2022-12-15T14:41:31.678Z,4.31
2022-12-15T14:43:05.192Z,4.32
2022-12-15T14:44:48.078Z,4.35
2022-12-15T14:46:26.216Z,4.34
2022-12-15T14:48:39.383Z,4.35
2022-12-15T14:50:01.486Z,4.34
2022-12-15T14:51:42.873Z,4.33
2022-12-15T14:53:17.880Z,4.33
2022-12-15T14:55:01.239Z,4.31
2022-12-15T14:56:33.282Z,4.29
2022-12-15T14:58:41.134Z,4.34
2022-12-15T15:00:37.097Z,4.34
2022-12-15T15:02:20.251Z,4.34
2022-12-15T15:03:04.321Z,3.92
2022-12-15T15:03:11.858Z,3.99
2022-12-15T15:04:00.030Z,4.34
2022-12-15T15:05:33.427Z,4.32
2022-12-15T15:07:08.347Z,4.32
2022-12-15T15:10:24.406Z,4.31
2022-12-15T15:12:05.249Z,4.29
2022-12-15T15:13:40.310Z,4.30
2022-12-15T15:15:19.536Z,4.29
2022-12-15T15:17:07.235Z,4.30
2022-12-15T15:18:39.358Z,4.23
2022-12-15T15:20:27.179Z,4.28
2022-12-15T15:22:02.297Z,4.28
2022-12-15T15:23:34.615Z,4.24
2022-12-15T15:25:25.656Z,4.29
2022-12-15T15:27:24.954Z,4.28
2022-12-15T15:28:57.387Z,4.18
2022-12-15T15:30:30.697Z,4.23
2022-12-15T15:32:17.522Z,4.26
2022-12-15T15:33:49.595Z,4.22
2022-12-15T15:35:23.070Z,4.24
2022-12-15T15:36:55.256Z,4.22
2022-12-15T15:38:40.143Z,4.23
2022-12-15T15:40:14.781Z,4.25
2022-12-15T15:41:46.728Z,4.23
2022-12-15T15:43:19.774Z,4.21
2022-12-15T15:44:51.887Z,4.22
2022-12-15T15:46:26.460Z,4.24
2022-12-15T15:48:01.553Z,4.22
2022-12-15T15:49:37.910Z,4.24
2022-12-15T15:51:11.790Z,4.22
2022-12-15T15:52:44.316Z,4.23
2022-12-15T15:54:22.998Z,4.25
2022-12-15T15:55:56.271Z,4.25
2022-12-15T15:57:28.349Z,4.22
2022-12-15T15:59:10.014Z,4.23
2022-12-15T16:00:42.205Z,4.21
2022-12-15T16:02:14.893Z,4.23
2022-12-15T16:03:47.146Z,4.21
2022-12-15T16:05:21.315Z,4.20
2022-12-15T16:06:53.847Z,4.23
2022-12-15T16:08:29.106Z,4.24
2022-12-15T16:10:01.594Z,4.23
2022-12-15T16:11:34.843Z,4.23
2022-12-15T16:13:10.182Z,4.22
2022-12-15T16:14:42.188Z,4.23
2022-12-15T16:16:19.389Z,4.26
2022-12-15T16:17:52.383Z,4.24
2022-12-15T16:19:27.997Z,4.23
2022-12-15T16:21:00.036Z,4.23
2022-12-15T16:22:33.935Z,4.22
2022-12-15T16:24:11.719Z,4.24
2022-12-15T16:25:50.607Z,4.21
2022-12-15T16:27:23.269Z,4.21
2022-12-15T16:28:55.849Z,4.21
2022-12-15T16:30:28.917Z,4.18
2022-12-15T16:32:01.027Z,4.18
2022-12-15T16:33:33.105Z,4.18
2022-12-15T16:35:05.505Z,4.17
2022-12-15T16:36:37.643Z,4.15
2022-12-15T16:38:38.556Z,4.19
2022-12-15T16:40:16.088Z,4.20
2022-12-15T16:41:48.143Z,4.16
2022-12-15T16:43:22.219Z,4.18
2022-12-15T16:44:57.009Z,4.14
2022-12-15T16:46:29.079Z,4.14
2022-12-15T16:48:01.376Z,4.12
2022-12-15T16:49:39.767Z,4.12
2022-12-15T16:51:31.811Z,4.14
2022-12-15T16:53:04.807Z,4.12
2022-12-15T16:54:36.804Z,4.12
2022-12-15T16:56:13.385Z,4.14
2022-12-15T16:57:45.871Z,4.11
2022-12-15T16:59:36.430Z,4.12
2022-12-15T17:01:10.882Z,4.11
2022-12-15T17:02:44.383Z,4.10
2022-12-15T17:04:16.944Z,4.13
2022-12-15T17:05:50.888Z,4.05
2022-12-15T17:07:24.511Z,4.02
2022-12-15T17:08:56.459Z,4.06
2022-12-15T17:10:30.322Z,4.01
2022-12-15T17:12:02.571Z,3.98
2022-12-15T17:13:45.339Z,3.98
2022-12-15T17:15:23.670Z,3.96
2022-12-15T17:16:56.028Z,3.90
2022-12-15T17:18:28.514Z,3.89
2022-12-15T17:21:54.074Z,3.88
2022-12-15T17:23:26.247Z,3.85
2022-12-15T17:24:58.244Z,3.80
2022-12-15T17:26:32.229Z,3.83
2022-12-15T17:28:06.866Z,3.81
2022-12-15T17:29:39.644Z,3.80
2022-12-15T17:31:22.824Z,3.82
2022-12-15T17:32:54.939Z,3.80
2022-12-15T17:34:31.624Z,3.81
2022-12-15T17:36:07.281Z,3.80
2022-12-15T17:37:40.079Z,3.80
2022-12-15T17:39:12.274Z,3.78
2022-12-15T17:40:45.323Z,3.78
2022-12-15T17:42:21.304Z,3.80
2022-12-15T17:44:09.743Z,3.76
2022-12-15T17:47:19.974Z,3.81
2022-12-15T17:48:52.020Z,3.77
2022-12-15T17:50:25.382Z,3.76
2022-12-15T17:51:58.158Z,3.75
2022-12-15T17:53:31.007Z,3.75
2022-12-15T17:55:08.407Z,3.75
2022-12-15T17:56:42.472Z,3.74
2022-12-15T17:58:25.932Z,3.76
2022-12-15T17:59:59.096Z,3.73
2022-12-15T18:01:31.311Z,3.70
2022-12-15T18:03:03.682Z,3.69
2022-12-15T18:04:36.153Z,3.67
2022-12-15T18:06:14.989Z,3.68
2022-12-15T18:07:50.819Z,3.65
2022-12-15T18:09:23.222Z,3.62
2022-12-15T18:10:57.600Z,3.64
2022-12-15T18:12:30.014Z,3.61
2022-12-15T18:14:02.076Z,3.61
2022-12-15T18:15:34.109Z,3.62
2022-12-15T18:17:06.124Z,3.62
2022-12-15T18:18:38.406Z,3.63
2022-12-15T18:20:10.887Z,3.60
2022-12-15T18:21:42.999Z,3.57
2022-12-15T18:23:20.710Z,3.58
2022-12-15T18:24:54.081Z,3.62
2022-12-15T18:26:26.057Z,3.56
2022-12-15T18:27:58.943Z,3.56
2022-12-15T18:29:30.979Z,3.54
2022-12-15T18:31:26.779Z,3.57
2022-12-15T18:32:59.534Z,3.50
2022-12-15T18:34:31.600Z,3.45
2022-12-15T18:36:03.950Z,3.48
2022-12-15T18:37:36.305Z,3.45
2022-12-15T18:39:19.904Z,3.52
2022-12-15T18:40:53.997Z,3.47
2022-12-15T18:42:26.080Z,3.43
2022-12-15T18:43:59.210Z,3.39
2022-12-15T18:45:31.326Z,3.33
2022-12-15T18:47:03.511Z,3.33
2022-12-15T18:48:38.116Z,3.37
2022-12-15T18:50:24.652Z,3.40
2022-12-15T18:51:56.643Z,3.36
2022-12-15T18:53:35.166Z,3.37
2022-12-15T18:55:16.942Z,3.36
2022-12-15T18:56:49.131Z,3.32
2022-12-15T18:58:24.881Z,3.33
2022-12-15T19:00:16.035Z,3.34
2022-12-15T19:01:49.417Z,3.34
2022-12-15T19:03:21.888Z,3.37
2022-12-15T19:04:53.965Z,3.32
2022-12-15T19:06:35.231Z,3.31
2022-12-15T19:08:13.564Z,3.28
2022-12-15T19:09:45.633Z,3.21
2022-12-15T19:11:25.579Z,3.23
2022-12-15T19:12:58.828Z,3.18
2022-12-15T19:14:43.369Z,3.18
2022-12-15T19:16:20.223Z,3.18
2022-12-15T19:18:10.636Z,3.10
2022-12-15T19:21:49.333Z,3.16
2022-12-15T19:23:21.838Z,3.15
2022-12-15T19:24:56.794Z,3.14
2022-12-15T19:26:28.973Z,3.11
2022-12-15T19:28:01.299Z,3.12
2022-12-15T19:29:33.265Z,3.11
2022-12-15T19:31:05.456Z,3.13
2022-12-15T19:32:37.553Z,3.12
2022-12-15T19:34:10.344Z,3.14
2022-12-15T19:35:44.604Z,3.15
2022-12-15T19:37:24.823Z,3.15
2022-12-15T19:38:56.908Z,3.15
2022-12-15T19:40:30.993Z,3.17
2022-12-15T19:42:06.552Z,3.16
2022-12-15T19:43:42.752Z,3.15
2022-12-15T19:45:20.566Z,3.19
2022-12-15T19:46:52.815Z,3.14
2022-12-15T19:48:24.814Z,3.10
2022-12-15T19:51:38.269Z,3.11
2022-12-15T19:53:26.288Z,3.13
2022-12-15T19:54:58.344Z,3.10
2022-12-15T19:56:30.512Z,3.11
2022-12-15T19:58:27.102Z,3.15
2022-12-15T19:59:59.972Z,3.09
2022-12-15T20:01:32.061Z,3.04
2022-12-15T20:03:04.405Z,3.04
2022-12-15T20:04:36.433Z,2.99
2022-12-15T20:06:23.979Z,3.03
2022-12-15T20:07:56.120Z,3.01
2022-12-15T20:09:28.260Z,3.01
2022-12-15T20:11:00.961Z,3.01
2022-12-15T20:12:32.954Z,2.99
2022-12-15T20:14:12.925Z,3.08
2022-12-15T20:15:45.798Z,3.04
2022-12-15T20:17:17.842Z,3.04
2022-12-15T20:18:55.059Z,3.10
2022-12-15T20:20:28.833Z,3.09
2022-12-15T20:22:02.357Z,3.09
2022-12-15T20:25:23.840Z,3.09
2022-12-15T20:26:55.890Z,3.04
2022-12-15T20:28:29.972Z,3.11
2022-12-15T20:30:01.904Z,3.09
2022-12-15T20:31:34.384Z,3.12
2022-12-15T20:33:06.475Z,3.10
2022-12-15T20:34:38.445Z,3.10
2022-12-15T20:36:17.780Z,3.13
2022-12-15T20:37:50.290Z,3.11
2022-12-15T20:39:28.036Z,3.14
2022-12-15T20:41:01.464Z,3.12
2022-12-15T20:42:33.467Z,3.11
2022-12-15T20:44:06.016Z,3.11
2022-12-15T20:45:38.043Z,3.10
2022-12-15T20:47:28.125Z,3.15
2022-12-15T20:49:00.189Z,3.04
2022-12-15T20:50:37.820Z,3.06
2022-12-15T20:52:19.277Z,3.09
2022-12-15T20:53:52.470Z,3.08
2022-12-15T20:55:24.858Z,3.09
2022-12-15T20:56:56.901Z,3.08
2022-12-15T20:58:33.373Z,3.12
2022-12-15T21:00:06.616Z,3.11
2022-12-15T21:01:39.751Z,3.13
2022-12-15T21:03:26.263Z,3.15
2022-12-15T21:04:58.302Z,3.13
2022-12-15T21:06:30.895Z,3.13
2022-12-15T21:08:10.402Z,3.16
2022-12-15T21:09:42.483Z,3.11
2022-12-15T21:11:23.028Z,3.14
2022-12-15T21:12:55.552Z,3.09
2022-12-15T21:14:27.713Z,3.08
2022-12-15T21:15:59.715Z,3.09
2022-12-15T21:17:31.681Z,3.10
2022-12-15T21:19:19.877Z,3.09
2022-12-15T21:20:55.621Z,3.14
2022-12-15T21:22:28.302Z,3.12
2022-12-15T21:24:02.054Z,3.13
2022-12-15T21:25:34.856Z,3.11
2022-12-15T21:27:09.676Z,3.12
2022-12-15T21:28:41.693Z,3.12
2022-12-15T21:30:21.985Z,3.17
2022-12-15T21:31:54.049Z,3.11
2022-12-15T21:33:26.128Z,3.10
2022-12-15T21:34:58.110Z,3.09
2022-12-15T21:36:30.202Z,3.08
2022-12-15T21:38:02.245Z,3.08
2022-12-15T21:39:36.382Z,3.12
2022-12-15T21:41:13.288Z,3.13
2022-12-15T21:42:45.316Z,3.12
2022-12-15T21:44:18.679Z,3.12
2022-12-15T21:45:50.728Z,3.14
2022-12-15T21:47:47.993Z,3.15
2022-12-15T21:49:20.788Z,3.14
2022-12-15T21:50:52.874Z,3.15
2022-12-15T21:52:26.187Z,3.17
2022-12-15T21:53:58.386Z,3.16
2022-12-15T21:55:30.992Z,3.16
2022-12-15T21:57:03.125Z,3.16
2022-12-15T21:58:35.441Z,3.15
2022-12-15T22:00:16.543Z,3.19
2022-12-15T22:01:49.300Z,3.15
2022-12-15T22:03:21.535Z,3.15
2022-12-15T22:04:54.855Z,3.14
2022-12-15T22:06:28.157Z,3.20
2022-12-15T22:08:13.120Z,3.17
2022-12-15T22:09:45.739Z,3.12
2022-12-15T22:11:29.290Z,3.11
2022-12-15T22:13:01.254Z,3.04
2022-12-15T22:14:34.435Z,3.02
2022-12-15T22:16:07.415Z,3.00
2022-12-15T22:17:39.415Z,3.01
2022-12-15T22:19:13.861Z,3.02
2022-12-15T22:20:48.583Z,3.04